createdAt,value
2019-01-05T00:00:56.760Z,5.53
2019-01-05T00:03:42.700Z,5.43
2019-01-05T00:06:28.644Z,6.20
2019-01-05T00:09:01.513Z,6.67
2019-01-05T00:11:34.372Z,7.60
2019-01-05T00:14:13.231Z,7.90
2019-01-05T00:16:48.788Z,7.93
2019-01-05T00:19:21.629Z,10.60
2019-01-05T00:21:54.176Z,10.63
2019-01-05T00:24:42.344Z,13.40
2019-01-05T00:27:27.157Z,14.70
2019-01-05T00:29:59.636Z,15.67
2019-01-05T00:32:41.672Z,17.63
2019-01-05T00:35:23.673Z,19.13
2019-01-05T00:37:53.632Z,23.90
2019-01-05T00:40:39.739Z,24.67
2019-01-05T00:43:24.999Z,25.67
2019-01-05T00:46:06.999Z,28.53
2019-01-05T00:48:55.240Z,29.57
2019-01-05T00:51:41.059Z,31.13
2019-01-05T00:54:10.963Z,36.57
2019-01-05T00:56:50.064Z,35.33
2019-01-05T00:59:35.228Z,41.97
2019-01-05T01:02:21.312Z,41.97
2019-01-05T01:04:56.896Z,44.43
2019-01-05T01:07:29.719Z,44.03
2019-01-05T01:10:17.151Z,46.73
2019-01-05T01:13:03.396Z,50.07
2019-01-05T01:15:39.228Z,52.53
2019-01-05T01:18:24.135Z,52.20
2019-01-05T01:21:02.733Z,57.40
2019-01-05T01:23:32.595Z,60.07
2019-01-05T01:26:18.510Z,60.87
2019-01-05T01:29:04.740Z,62.83
2019-01-05T01:31:43.892Z,67.43
2019-01-05T01:34:16.478Z,67.97
2019-01-05T01:36:46.367Z,70.67
2019-01-05T01:39:18.243Z,71.50
2019-01-05T01:41:48.208Z,74.93
2019-01-05T01:44:24.138Z,77.10
2019-01-05T01:46:56.820Z,76.70
2019-01-05T01:49:43.419Z,80.07
2019-01-05T01:52:29.292Z,80.17
2019-01-05T01:55:14.283Z,83.00
2019-01-05T01:57:44.162Z,85.77
2019-01-05T02:00:19.954Z,88.63
2019-01-05T02:02:53.060Z,90.93
2019-01-05T02:05:22.932Z,92.43
2019-01-05T02:07:55.931Z,96.67
2019-01-05T02:10:35.104Z,93.77
2019-01-05T02:13:10.697Z,95.53
2019-01-05T02:15:40.588Z,97.20
2019-01-05T02:18:22.805Z,98.50
2019-01-05T02:20:58.646Z,96.20
2019-01-05T02:24:04.711Z,100.27
2019-01-05T02:26:49.241Z,104.80
2019-01-05T02:29:43.236Z,108.93
2019-01-05T02:32:25.281Z,109.30
2019-01-05T02:35:18.956Z,108.70
2019-01-05T02:38:09.655Z,112.13
2019-01-05T02:41:00.234Z,113.07
2019-01-05T02:44:21.329Z,115.03
2019-01-05T02:47:31.657Z,114.40
2019-01-05T02:50:22.319Z,120.73
2019-01-05T02:53:20.577Z,120.53
2019-01-05T02:56:12.760Z,123.77
2019-01-05T02:59:03.946Z,125.27
2019-01-05T03:01:53.587Z,125.87
2019-01-05T03:04:42.936Z,125.60
2019-01-05T03:07:30.249Z,127.20
2019-01-05T03:10:21.107Z,127.70
2019-01-05T03:13:25.709Z,127.40
2019-01-05T03:16:16.459Z,127.57
2019-01-05T03:19:20.925Z,126.93
2019-01-05T03:22:30.868Z,128.13
2019-01-05T03:25:27.961Z,131.07
2019-01-05T03:28:26.152Z,128.43
2019-01-05T03:31:16.962Z,127.33
2019-01-05T03:34:05.848Z,128.73
2019-01-05T03:36:50.887Z,127.43
2019-01-05T03:40:07.793Z,125.50
2019-01-05T03:42:52.837Z,123.03
2019-01-05T03:46:12.456Z,123.80
2019-01-05T03:49:15.348Z,123.40
2019-01-05T03:52:12.851Z,121.07
2019-01-05T03:55:21.861Z,120.87
2019-01-05T03:58:28.633Z,121.47
2019-01-05T04:01:21.368Z,119.57
2019-01-05T04:04:19.489Z,117.07
2019-01-05T04:07:11.672Z,117.00
2019-01-05T04:10:17.444Z,113.63
2019-01-05T04:13:23.119Z,110.77
2019-01-05T04:16:19.668Z,108.57
2019-01-05T04:19:43.507Z,109.17
2019-01-05T04:22:28.679Z,108.07
2019-01-05T04:25:25.331Z,107.40
2019-01-05T04:28:14.996Z,105.47
2019-01-05T04:31:28.241Z,101.23
2019-01-05T04:34:26.549Z,99.70
2019-01-05T04:37:35.008Z,99.03
2019-01-05T04:40:36.643Z,97.33
2019-01-05T04:43:21.483Z,95.33
2019-01-05T04:46:19.887Z,93.27
2019-01-05T04:49:32.744Z,90.83
2019-01-05T04:52:20.420Z,88.27
2019-01-05T04:55:08.192Z,89.77
2019-01-05T04:57:53.141Z,86.30
2019-01-05T05:00:49.203Z,83.73
2019-01-05T05:03:33.957Z,84.67
2019-01-05T05:06:18.848Z,82.60
2019-01-05T05:09:32.157Z,80.20
2019-01-05T05:12:35.200Z,78.47
2019-01-05T05:15:50.283Z,74.57
2019-01-05T05:18:26.153Z,74.70
2019-01-05T05:21:19.782Z,73.23
2019-01-05T05:24:09.618Z,71.93
2019-01-05T05:26:57.301Z,71.03
2019-01-05T05:29:52.663Z,68.60
2019-01-05T05:33:00.368Z,68.03
2019-01-05T05:35:36.470Z,65.87
2019-01-05T05:38:57.156Z,63.80
2019-01-05T05:42:13.706Z,61.47
2019-01-05T05:45:19.625Z,60.97
2019-01-05T05:48:13.741Z,60.07
2019-01-05T05:51:14.622Z,59.37
2019-01-05T05:53:56.560Z,57.10
2019-01-05T05:56:44.524Z,55.57
2019-01-05T05:59:29.332Z,54.93
2019-01-05T06:02:14.461Z,54.10
2019-01-05T06:05:15.693Z,52.63
2019-01-05T06:08:14.448Z,51.40
2019-01-05T06:11:27.806Z,49.50
2019-01-05T06:14:37.768Z,47.97
2019-01-05T06:17:40.131Z,48.83
2019-01-05T06:20:21.738Z,46.20
2019-01-05T06:23:35.050Z,45.60
2019-01-05T06:26:42.458Z,43.93
2019-01-05T06:29:40.933Z,43.10
2019-01-05T06:32:41.780Z,42.40
2019-01-05T06:35:23.854Z,41.60
2019-01-05T06:38:05.366Z,40.50
2019-01-05T06:41:12.783Z,39.47
2019-01-05T06:43:51.480Z,37.90
2019-01-05T06:46:33.214Z,37.47
2019-01-05T06:49:34.600Z,35.03
2019-01-05T06:52:51.118Z,34.77
2019-01-05T06:55:58.227Z,34.03
2019-01-05T06:58:59.586Z,32.73
2019-01-05T07:02:20.717Z,31.80
2019-01-05T07:05:12.897Z,31.77
2019-01-05T07:08:04.812Z,30.57
2019-01-05T07:11:12.514Z,29.80
2019-01-05T07:13:51.180Z,28.80
2019-01-05T07:16:42.104Z,27.50
2019-01-05T07:19:45.216Z,26.80
2019-01-05T07:23:05.069Z,26.13
2019-01-05T07:26:09.293Z,24.93
2019-01-05T07:29:07.815Z,24.97
2019-01-05T07:32:30.083Z,23.13
2019-01-05T07:35:20.412Z,22.07
2019-01-05T07:38:41.260Z,22.23
2019-01-05T07:41:23.239Z,21.13
2019-01-05T07:44:26.496Z,20.57
2019-01-05T07:47:40.910Z,20.00
2019-01-05T07:51:00.354Z,19.50
2019-01-05T07:54:18.171Z,19.00
2019-01-05T07:57:31.859Z,17.97
2019-01-05T08:00:19.804Z,17.47
2019-01-05T08:05:56.141Z,15.50
2019-01-05T08:08:55.909Z,16.00
2019-01-05T08:11:55.769Z,15.17
2019-01-05T08:14:55.301Z,14.80
2019-01-05T08:17:55.485Z,14.27
2019-01-05T08:20:40.718Z,13.30
2019-01-05T08:23:40.336Z,12.90
2019-01-05T08:26:39.773Z,12.60
2019-01-05T08:29:21.864Z,13.03
2019-01-05T08:32:04.980Z,11.30
2019-01-05T08:34:49.736Z,11.20
2019-01-05T08:37:49.260Z,10.43
2019-01-05T08:40:49.204Z,10.33
2019-01-05T08:43:48.953Z,9.77
2019-01-05T08:46:48.537Z,9.70
2019-01-05T08:49:33.348Z,9.27
2019-01-05T08:52:32.968Z,9.00
2019-01-05T08:55:18.321Z,8.60
2019-01-05T09:01:10.014Z,7.40
2019-01-05T09:03:52.602Z,7.37
2019-01-05T09:06:52.395Z,7.37
2019-01-05T09:09:34.294Z,6.93
2019-01-05T09:12:34.785Z,6.80
2019-01-05T09:15:34.270Z,6.27
2019-01-05T09:18:33.918Z,5.93
2019-01-05T09:21:18.780Z,5.80
2019-01-05T09:24:03.790Z,5.40
2019-01-05T09:27:03.693Z,5.17
2019-01-05T09:30:03.111Z,4.97
2019-01-05T09:33:03.015Z,4.77
2019-01-05T09:36:02.464Z,4.90
2019-01-05T09:38:44.757Z,4.30
2019-01-05T09:41:44.386Z,4.80
2019-01-05T09:44:44.133Z,4.23
2019-01-05T09:50:19.564Z,4.00
2019-01-05T09:53:19.300Z,4.03
2019-01-05T09:59:14.720Z,4.80
2019-01-05T10:02:14.494Z,5.10
2019-01-05T10:04:56.668Z,4.60
2019-01-05T10:07:38.600Z,4.07
2019-01-05T10:10:39.220Z,4.07
2019-01-05T10:13:39.252Z,4.47
2019-01-05T10:16:38.749Z,4.73
2019-01-05T10:19:21.084Z,4.33
2019-01-05T10:22:20.492Z,4.73
2019-01-05T10:25:20.190Z,4.50
2019-01-05T10:28:05.468Z,4.60
2019-01-05T10:30:48.003Z,4.67
2019-01-05T10:36:26.736Z,5.47
2019-01-05T10:39:26.411Z,4.93
2019-01-05T10:42:12.273Z,4.97
2019-01-05T10:45:12.864Z,5.50
2019-01-05T10:48:13.165Z,5.35
2019-01-05T10:50:57.943Z,5.63
2019-01-05T10:56:53.106Z,6.55
2019-01-05T10:59:52.785Z,5.85
2019-01-05T11:02:34.843Z,5.65
2019-01-05T11:05:16.876Z,5.60
2019-01-05T11:07:59.145Z,5.80
2019-01-05T11:10:59.475Z,5.37
2019-01-05T11:13:44.945Z,6.20
2019-01-05T11:16:29.773Z,5.58
2019-01-05T11:19:11.696Z,5.95
2019-01-05T11:21:53.968Z,6.40
2019-01-05T11:24:54.153Z,5.58
2019-01-05T11:27:53.843Z,5.78
2019-01-05T11:30:53.644Z,6.62
2019-01-05T11:33:53.329Z,6.65
2019-01-05T11:36:53.238Z,6.70
2019-01-05T11:39:39.122Z,5.97
2019-01-05T11:42:39.361Z,7.20
2019-01-05T11:45:39.844Z,6.07
2019-01-05T11:48:39.645Z,5.55
2019-01-05T11:51:39.373Z,5.60
2019-01-05T11:57:14.966Z,5.27
2019-01-05T12:00:14.481Z,5.25
2019-01-05T12:03:13.959Z,5.50
2019-01-05T12:06:14.428Z,5.22
2019-01-05T12:09:40.800Z,6.00
2019-01-05T12:12:49.318Z,4.83
2019-01-05T12:16:15.821Z,5.40
2019-01-05T12:19:24.330Z,5.83
2019-01-05T12:22:50.624Z,5.60
2019-01-05T12:25:59.492Z,5.97
2019-01-05T12:29:25.846Z,5.28
2019-01-05T12:32:52.153Z,4.65
2019-01-05T12:36:18.537Z,5.67
2019-01-05T12:39:27.040Z,5.28
2019-01-05T12:42:53.352Z,4.62
2019-01-05T12:46:01.818Z,4.92
2019-01-05T12:49:10.321Z,4.60
2019-01-05T12:52:19.322Z,5.13
2019-01-05T12:55:19.001Z,4.78
2019-01-05T12:58:01.125Z,5.40
2019-01-05T13:00:46.672Z,4.67
2019-01-05T13:06:36.361Z,5.03
2019-01-05T13:13:10.794Z,4.58
2019-01-05T13:16:20.157Z,4.47
2019-01-05T13:19:29.125Z,4.72
2019-01-05T13:22:55.431Z,4.27
2019-01-05T13:26:21.705Z,4.78
2019-01-05T13:29:30.461Z,4.70
2019-01-05T13:32:56.762Z,3.97
2019-01-05T13:35:56.253Z,4.00
2019-01-05T13:38:56.366Z,4.37
2019-01-05T13:41:42.096Z,4.33
2019-01-05T13:44:41.505Z,5.10
2019-01-05T13:47:24.024Z,5.00
2019-01-05T13:50:23.501Z,4.63
2019-01-05T13:53:08.693Z,4.43
2019-01-05T13:56:08.833Z,5.00
2019-01-05T13:58:51.465Z,5.40
2019-01-05T14:01:50.953Z,6.07
2019-01-05T14:07:38.048Z,5.33
2019-01-05T14:13:31.558Z,6.20
2019-01-05T14:16:31.126Z,5.17
2019-01-05T14:19:30.949Z,5.87
2019-01-05T14:22:30.975Z,5.03
2019-01-05T14:25:13.537Z,5.55
2019-01-05T14:28:13.145Z,5.78
2019-01-05T14:33:51.687Z,5.20
2019-01-05T14:36:39.202Z,5.60
2019-01-05T14:39:46.080Z,5.42
2019-01-05T14:42:53.027Z,5.95
2019-01-05T14:45:59.905Z,5.80
2019-01-05T14:49:07.102Z,5.60
2019-01-05T14:52:14.413Z,5.92
2019-01-05T14:55:21.549Z,5.85
2019-01-05T14:58:28.404Z,6.10
2019-01-05T15:01:35.289Z,6.33
2019-01-05T15:04:42.187Z,6.12
2019-01-05T15:10:57.889Z,6.28
2019-01-05T15:13:57.382Z,6.57
2019-01-05T15:16:57.561Z,5.83
2019-01-05T15:19:57.310Z,6.30
2019-01-05T15:25:22.308Z,6.60
2019-01-05T15:28:04.365Z,6.03
2019-01-05T15:31:04.041Z,6.70
2019-01-05T15:33:48.912Z,6.57
2019-01-05T15:36:30.717Z,9.45
2019-01-05T15:42:13.348Z,8.67
2019-01-05T15:45:13.128Z,8.18
2019-01-05T15:47:58.383Z,7.67
2019-01-05T15:50:41.239Z,8.07
2019-01-05T15:53:41.738Z,7.90
2019-01-05T15:56:41.552Z,7.30
2019-01-05T15:59:41.141Z,8.23
2019-01-05T16:02:28.594Z,6.97
2019-01-05T16:05:35.475Z,8.90
2019-01-05T16:08:42.320Z,7.87
2019-01-05T16:11:50.480Z,7.93
2019-01-05T16:14:57.356Z,7.77
2019-01-05T16:21:12.640Z,7.70
2019-01-05T16:24:19.524Z,7.83
2019-01-05T16:27:26.452Z,7.83
2019-01-05T16:33:41.724Z,8.20
2019-01-05T16:36:48.601Z,9.17
2019-01-05T16:42:50.261Z,9.37
2019-01-05T16:45:57.526Z,8.17
2019-01-05T16:48:57.377Z,8.93
2019-01-05T16:51:43.020Z,8.17
2019-01-05T16:54:42.929Z,7.50
2019-01-05T16:57:27.467Z,8.00
2019-01-05T17:00:27.493Z,7.97
2019-01-05T17:03:27.151Z,8.67
2019-01-05T17:06:12.520Z,8.00
2019-01-05T17:08:57.691Z,7.57
2019-01-05T17:11:57.557Z,8.27
2019-01-05T17:14:57.481Z,7.10
2019-01-05T17:17:57.526Z,7.97
2019-01-05T17:23:39.760Z,7.37
2019-01-05T17:26:46.635Z,6.73
2019-01-05T17:29:53.500Z,7.70
2019-01-05T17:39:39.127Z,7.87
2019-01-05T17:42:46.061Z,6.57
2019-01-05T17:45:52.919Z,7.40
2019-01-05T17:48:59.875Z,7.30
2019-01-05T17:52:06.784Z,22.57
2019-01-05T17:55:06.861Z,8.63
2019-01-05T17:58:06.386Z,8.00
2019-01-05T18:01:06.086Z,8.00
2019-01-05T18:03:48.276Z,7.27
2019-01-05T18:10:06.351Z,7.33
2019-01-05T18:12:48.631Z,8.60
2019-01-05T18:15:34.746Z,7.87
2019-01-05T18:18:34.811Z,7.23
2019-01-05T18:21:19.363Z,7.60
2019-01-05T18:26:56.353Z,7.30
2019-01-05T18:36:07.249Z,6.93
2019-01-05T18:38:49.753Z,7.43
2019-01-05T18:41:50.063Z,6.97
2019-01-05T18:44:50.350Z,7.07
2019-01-05T18:47:50.731Z,8.10
2019-01-05T18:50:36.200Z,7.63
2019-01-05T18:53:18.974Z,7.10
2019-01-05T18:56:18.859Z,7.83
2019-01-05T19:02:26.873Z,6.10
2019-01-05T19:05:26.979Z,7.03
2019-01-05T19:08:11.573Z,6.17
2019-01-05T19:11:11.248Z,6.63
2019-01-05T19:13:56.276Z,6.17
2019-01-05T19:16:41.245Z,5.90
2019-01-05T19:19:40.792Z,6.43
2019-01-05T19:25:32.864Z,5.33
2019-01-05T19:28:32.429Z,5.73
2019-01-05T19:34:40.184Z,6.13
2019-01-05T19:37:22.112Z,5.73
2019-01-05T19:40:07.093Z,5.40
2019-01-05T19:43:06.546Z,5.20
2019-01-05T19:46:06.466Z,5.57
2019-01-05T19:49:06.005Z,5.30
2019-01-05T19:52:05.465Z,5.23
2019-01-05T19:55:05.204Z,4.50
2019-01-05T19:58:04.729Z,4.53
2019-01-05T20:01:05.076Z,5.17
2019-01-05T20:03:47.533Z,5.17
2019-01-05T20:06:47.885Z,4.93
2019-01-05T20:09:48.092Z,4.67
2019-01-05T20:12:47.560Z,4.57
2019-01-05T20:15:47.716Z,4.90
2019-01-05T20:18:47.544Z,4.70
2019-01-05T20:21:29.704Z,4.30
2019-01-05T20:24:11.939Z,4.43
2019-01-05T20:26:57.188Z,4.40
2019-01-05T20:29:57.457Z,4.50
2019-01-05T20:33:00.556Z,3.90
2019-01-05T20:36:00.275Z,4.20
2019-01-05T20:38:45.396Z,4.60
2019-01-05T20:41:45.583Z,3.93
2019-01-05T20:47:52.057Z,4.03
2019-01-05T20:50:34.146Z,4.63
2019-01-05T20:53:33.642Z,4.43
2019-01-05T20:59:40.949Z,4.13
2019-01-05T21:02:22.809Z,4.10
2019-01-05T21:08:17.227Z,4.17
2019-01-05T21:11:16.660Z,3.63
2019-01-05T21:16:54.882Z,4.40
2019-01-05T21:22:46.936Z,4.97
2019-01-05T21:25:46.828Z,3.90
2019-01-05T21:28:29.038Z,4.67
2019-01-05T21:31:14.451Z,4.20
2019-01-05T21:40:15.409Z,4.27
2019-01-05T21:43:15.393Z,4.47
2019-01-05T21:46:00.625Z,4.63
2019-01-05T21:49:00.701Z,4.33
2019-01-05T21:52:00.957Z,5.13
2019-01-05T21:54:45.661Z,4.83
2019-01-05T21:57:27.744Z,4.97
2019-01-05T22:00:09.973Z,4.40
2019-01-05T22:02:52.056Z,4.50
2019-01-05T22:11:24.208Z,4.87
2019-01-05T22:14:09.353Z,4.20
2019-01-05T22:16:51.582Z,5.43
2019-01-05T22:19:33.408Z,4.57
2019-01-05T22:22:16.048Z,4.40
2019-01-05T22:24:58.818Z,4.20
2019-01-05T22:27:58.374Z,4.23
2019-01-05T22:30:40.372Z,4.33
2019-01-05T22:33:22.193Z,4.23
2019-01-05T22:36:04.065Z,4.50
2019-01-05T22:39:03.792Z,4.37
2019-01-05T22:41:45.688Z,4.17
2019-01-05T22:44:45.152Z,4.73
2019-01-05T22:47:51.993Z,4.63
2019-01-05T22:50:58.886Z,4.17
2019-01-05T22:54:05.718Z,4.23
2019-01-05T23:00:11.417Z,3.70
2019-01-05T23:03:18.280Z,3.97
2019-01-05T23:06:25.153Z,3.87
2019-01-05T23:12:40.444Z,4.27
2019-01-05T23:15:47.288Z,4.03
2019-01-05T23:18:54.149Z,4.17
2019-01-05T23:22:01.016Z,4.47
2019-01-05T23:39:29.337Z,5.70
2019-01-05T23:42:29.045Z,5.90
2019-01-05T23:45:29.085Z,7.00
2019-01-05T23:48:29.241Z,7.30
2019-01-05T23:51:14.848Z,8.47
2019-01-05T23:54:14.581Z,9.40
2019-01-05T23:57:14.388Z,11.17
